Time;durP1;ratioP1;P1;durP2;ratioP2;P2;SDS_P1;SDS_P2;PMS_P1;PMS_P2;Temp;Humidity;BMP_temperature;BMP_pressure;BME280_temperature;BME280_humidity;BME280_pressure;Samples;Min_cycle;Max_cycle;Signal;HPM_P1;HPM_P2
2021/08/02 00:00:50;;;;;;;5.90;2.50;;;;;;;;;;5026506;28;20024;-78
2021/08/02 00:03:40;;;;;;;5.82;2.70;;;;;;;;;;5028337;28;20036;-78
2021/08/02 00:06:08;;;;;;;5.75;2.53;;;;;;;;;;5024952;28;20021;-78
2021/08/02 00:08:34;;;;;;;6.75;2.60;;;;;;;;;;5024954;28;20052;-78
2021/08/02 00:11:01;;;;;;;6.78;2.92;;;;;;;;;;5009696;28;20026;-78
2021/08/02 00:13:31;;;;;;;5.15;2.67;;;;;;;;;;5024800;28;20088;-78
2021/08/02 00:16:01;;;;;;;5.90;2.95;;;;;;;;;;5030901;28;20029;-78
2021/08/02 00:18:28;;;;;;;9.35;2.90;;;;;;;;;;5029878;28;20492;-78
2021/08/02 00:20:57;;;;;;;6.85;2.97;;;;;;;;;;5022318;28;20037;-78
2021/08/02 00:23:25;;;;;;;7.55;2.67;;;;;;;;;;5022679;28;20127;-78
2021/08/02 00:25:55;;;;;;;5.38;2.47;;;;;;;;;;5019992;28;20026;-78
2021/08/02 00:28:22;;;;;;;6.82;2.80;;;;;;;;;;5038489;28;20491;-78
2021/08/02 00:30:48;;;;;;;7.25;3.08;;;;;;;;;;5024260;28;20039;-78
2021/08/02 00:33:13;;;;;;;4.07;2.50;;;;;;;;;;5026055;28;20112;-78
2021/08/02 00:35:46;;;;;;;12.65;2.83;;;;;;;;;;5023969;28;20454;-78
2021/08/02 00:38:19;;;;;;;7.70;2.50;;;;;;;;;;5024795;28;20370;-78
2021/08/02 00:40:48;;;;;;;;;;;;;;;;;;5023994;28;20029;-78
2021/08/02 00:43:13;;;;;;;9.02;2.67;;;;;;;;;;5024949;28;19921;-78
2021/08/02 00:45:40;;;;;;;4.82;2.60;;;;;;;;;;5030266;28;20511;-78
2021/08/02 00:48:09;;;;;;;6.78;2.60;;;;;;;;;;5028570;28;20041;-78
2021/08/02 00:50:40;;;;;;;7.13;2.72;;;;;;;;;;5026422;28;20075;-78
2021/08/02 00:53:19;;;;;;;11.35;2.55;;;;;;;;;;5016987;28;20077;-78
2021/08/02 00:55:57;;;;;;;9.63;2.67;;;;;;;;;;5029278;28;20061;-78
2021/08/02 00:58:25;;;;;;;6.80;2.60;;;;;;;;;;5030002;28;20040;-78
2021/08/02 01:00:51;;;;;;;5.70;2.35;;;;;;;;;;5029600;28;20048;-78
2021/08/02 01:03:17;;;;;;;6.82;2.40;;;;;;;;;;5029370;28;20556;-78
2021/08/02 01:05:47;;;;;;;6.75;2.70;;;;;;;;;;5030643;28;20112;-78
2021/08/02 01:08:19;;;;;;;6.65;3.10;;;;;;;;;;5024292;28;20520;-78
2021/08/02 01:10:47;;;;;;;12.13;2.72;;;;;;;;;;5024629;28;20022;-78
2021/08/02 01:13:16;;;;;;;4.70;2.47;;;;;;;;;;5028637;28;20064;-78
2021/08/02 01:15:45;;;;;;;6.10;2.60;;;;;;;;;;5029877;28;20064;-78
2021/08/02 01:18:12;;;;;;;6.55;2.60;;;;;;;;;;5025533;28;20543;-78
2021/08/02 01:20:42;;;;;;;6.07;2.50;;;;;;;;;;5031072;28;20032;-78
2021/08/02 01:23:09;;;;;;;7.75;2.53;;;;;;;;;;5031632;28;20021;-78
2021/08/02 01:25:34;;;;;;;7.35;2.95;;;;;;;;;;5027530;28;20029;-78
2021/08/02 01:28:15;;;;;;;6.80;2.67;;;;;;;;;;5031387;28;20409;-78
2021/08/02 01:30:54;;;;;;;5.53;2.58;;;;;;;;;;5029105;28;20029;-78
2021/08/02 01:33:30;;;;;;;6.28;2.67;;;;;;;;;;5026397;28;20030;-78
2021/08/02 01:35:57;;;;;;;6.20;2.63;;;;;;;;;;5029865;28;20030;-77
2021/08/02 01:38:27;;;;;;;6.63;2.80;;;;;;;;;;5026905;28;20091;-78
2021/08/02 01:40:53;;;;;;;7.55;3.15;;;;;;;;;;5027249;28;20501;-78
2021/08/02 01:43:19;;;;;;;8.25;2.90;;;;;;;;;;5030034;28;20052;-78
2021/08/02 01:46:06;;;;;;;6.20;2.90;;;;;;;;;;5013504;28;20029;-78
2021/08/02 01:49:01;;;;;;;7.03;3.40;;;;;;;;;;5025526;28;20036;-78
2021/08/02 01:51:34;;;;;;;7.80;2.60;;;;;;;;;;5023853;28;20045;-78
2021/08/02 01:54:21;;;;;;;8.50;3.00;;;;;;;;;;5030608;28;20484;-78
2021/08/02 01:57:22;;;;;;;6.03;2.50;;;;;;;;;;5025951;28;20025;-78
2021/08/02 01:59:55;;;;;;;6.47;2.92;;;;;;;;;;5025931;28;20035;-78
2021/08/02 02:02:20;;;;;;;5.10;3.08;;;;;;;;;;5029930;28;20036;-78
2021/08/02 02:04:54;;;;;;;6.93;2.53;;;;;;;;;;5003913;28;20041;-78
2021/08/02 02:07:21;;;;;;;6.85;2.88;;;;;;;;;;5029714;28;20469;-78
2021/08/02 02:09:49;;;;;;;6.40;2.85;;;;;;;;;;5026691;28;20026;-78
2021/08/02 02:12:17;;;;;;;4.53;2.45;;;;;;;;;;5029727;28;20108;-78
2021/08/02 02:14:43;;;;;;;4.75;2.80;;;;;;;;;;5032042;28;20044;-78
2021/08/02 02:17:12;;;;;;;6.00;2.78;;;;;;;;;;5028235;28;20034;-78
2021/08/02 02:19:39;;;;;;;6.22;3.03;;;;;;;;;;5026600;28;20025;-78
2021/08/02 02:22:06;;;;;;;7.25;3.30;;;;;;;;;;5025915;28;20030;-78
2021/08/02 02:24:37;;;;;;;5.50;2.75;;;;;;;;;;5029116;28;20093;-78
2021/08/02 02:27:06;;;;;;;5.75;2.78;;;;;;;;;;5023478;28;20401;-78
2021/08/02 02:29:32;;;;;;;7.15;2.90;;;;;;;;;;5024978;28;20108;-78
2021/08/02 02:31:59;;;;;;;7.03;2.80;;;;;;;;;;5024301;28;20071;-78
2021/08/02 02:34:25;;;;;;;6.38;3.35;;;;;;;;;;5030638;28;20037;-78
2021/08/02 02:36:51;;;;;;;7.90;3.10;;;;;;;;;;5028212;28;20529;-78
2021/08/02 02:39:18;;;;;;;7.38;3.20;;;;;;;;;;5026630;28;20040;-78
2021/08/02 02:41:44;;;;;;;6.90;3.15;;;;;;;;;;5024831;28;20573;-78
2021/08/02 02:44:09;;;;;;;7.35;3.30;;;;;;;;;;5031036;28;20075;-78
2021/08/02 02:46:36;;;;;;;6.20;3.10;;;;;;;;;;5009803;28;20103;-78
2021/08/02 02:49:02;;;;;;;7.18;2.83;;;;;;;;;;5021973;28;20026;-78
2021/08/02 02:51:29;;;;;;;9.57;3.10;;;;;;;;;;5026127;28;20149;-78
2021/08/02 02:53:57;;;;;;;5.43;3.08;;;;;;;;;;5027586;28;20111;-78
2021/08/02 02:56:23;;;;;;;6.63;3.50;;;;;;;;;;5029340;28;20116;-78
2021/08/02 02:58:49;;;;;;;7.65;3.20;;;;;;;;;;5011772;28;20466;-78
2021/08/02 03:01:22;;;;;;;5.25;3.20;;;;;;;;;;5009556;28;20111;-78
2021/08/02 03:03:50;;;;;;;9.05;3.78;;;;;;;;;;5026396;28;20490;-78
2021/08/02 03:06:17;;;;;;;6.03;3.03;;;;;;;;;;5028451;28;20199;-78
2021/08/02 03:08:44;;;;;;;7.28;3.17;;;;;;;;;;5030361;28;20037;-78
2021/08/02 03:11:13;;;;;;;8.90;3.90;;;;;;;;;;5021943;28;20036;-78
2021/08/02 03:13:38;;;;;;;5.93;3.30;;;;;;;;;;5026664;28;20041;-78
2021/08/02 03:16:05;;;;;;;6.20;3.22;;;;;;;;;;5024633;28;20029;-78
2021/08/02 03:18:30;;;;;;;6.60;3.20;;;;;;;;;;5025396;28;20060;-78
2021/08/02 03:20:56;;;;;;;8.32;3.40;;;;;;;;;;5030771;28;20055;-78
2021/08/02 03:23:31;;;;;;;6.75;3.40;;;;;;;;;;5024771;28;20033;-78
2021/08/02 03:26:04;;;;;;;7.78;3.22;;;;;;;;;;5023371;28;20116;-78
2021/08/02 03:29:17;;;;;;;7.15;3.13;;;;;;;;;;5024715;28;20045;-78
2021/08/02 03:31:51;;;;;;;6.75;2.85;;;;;;;;;;5026419;28;20041;-78
2021/08/02 03:34:27;;;;;;;8.23;3.17;;;;;;;;;;5024040;28;20068;-78
2021/08/02 03:36:54;;;;;;;5.43;3.00;;;;;;;;;;5025102;28;20035;-78
2021/08/02 03:39:21;;;;;;;5.55;2.90;;;;;;;;;;5025206;28;20038;-78
2021/08/02 03:41:48;;;;;;;6.68;2.92;;;;;;;;;;5024804;28;20396;-78
2021/08/02 03:44:14;;;;;;;4.93;2.75;;;;;;;;;;5027330;28;20044;-78
2021/08/02 03:46:41;;;;;;;8.68;3.15;;;;;;;;;;5022031;28;20038;-78
2021/08/02 03:49:07;;;;;;;5.80;3.17;;;;;;;;;;5006046;28;20087;-78
2021/08/02 03:51:46;;;;;;;6.55;3.10;;;;;;;;;;5023688;28;20053;-78
2021/08/02 03:54:13;;;;;;;7.30;2.92;;;;;;;;;;5025258;28;20404;-78
2021/08/02 03:56:41;;;;;;;8.20;3.10;;;;;;;;;;5023106;28;20412;-78
2021/08/02 03:59:06;;;;;;;8.88;2.92;;;;;;;;;;5029471;28;20022;-78
2021/08/02 04:01:42;;;;;;;6.53;2.72;;;;;;;;;;5028294;28;20096;-78
2021/08/02 04:04:08;;;;;;;7.95;3.40;;;;;;;;;;5025591;28;20133;-78
2021/08/02 04:06:34;;;;;;;4.93;3.00;;;;;;;;;;5025118;28;20056;-78
2021/08/02 04:09:00;;;;;;;4.97;2.90;;;;;;;;;;5030059;28;20471;-78
2021/08/02 04:11:26;;;;;;;6.07;3.05;;;;;;;;;;5005669;28;20112;-78
2021/08/02 04:13:52;;;;;;;6.07;3.03;;;;;;;;;;5012087;28;20065;-78
2021/08/02 04:16:17;;;;;;;6.63;2.90;;;;;;;;;;5026848;28;20053;-78
2021/08/02 04:18:43;;;;;;;6.43;2.95;;;;;;;;;;5018722;28;20045;-78
2021/08/02 04:21:08;;;;;;;8.85;3.15;;;;;;;;;;5023249;28;20124;-78
2021/08/02 04:23:34;;;;;;;7.90;3.00;;;;;;;;;;5033956;28;20113;-78
2021/08/02 04:25:59;;;;;;;7.38;2.90;;;;;;;;;;5012190;28;20034;-78
2021/08/02 04:28:24;;;;;;;5.03;3.05;;;;;;;;;;5025873;28;20038;-78
2021/08/02 04:30:50;;;;;;;4.82;2.80;;;;;;;;;;5030961;28;20038;-78
2021/08/02 04:33:15;;;;;;;6.03;3.17;;;;;;;;;;5023457;28;20030;-78
2021/08/02 04:35:41;;;;;;;5.25;3.35;;;;;;;;;;5023132;28;20076;-78
2021/08/02 04:38:07;;;;;;;5.43;2.80;;;;;;;;;;5028068;28;20041;-78
2021/08/02 04:40:32;;;;;;;7.88;3.35;;;;;;;;;;5022796;28;20045;-78
2021/08/02 04:42:58;;;;;;;5.97;2.53;;;;;;;;;;5013782;28;20045;-78
2021/08/02 04:45:23;;;;;;;6.72;2.97;;;;;;;;;;5012583;28;20428;-77
2021/08/02 04:47:50;;;;;;;4.70;2.97;;;;;;;;;;5027385;28;21526;-78
2021/08/02 04:50:16;;;;;;;7.05;3.33;;;;;;;;;;5008223;28;20033;-78
2021/08/02 04:52:42;;;;;;;5.63;2.72;;;;;;;;;;5023421;28;20053;-78
2021/08/02 04:55:08;;;;;;;7.15;2.95;;;;;;;;;;5026250;28;20117;-78
2021/08/02 04:57:34;;;;;;;6.63;2.97;;;;;;;;;;5028327;28;20045;-78
2021/08/02 04:59:59;;;;;;;6.55;2.78;;;;;;;;;;5031065;28;20030;-78
2021/08/02 05:02:25;;;;;;;6.85;2.67;;;;;;;;;;5031508;28;20022;-78
2021/08/02 05:04:51;;;;;;;6.43;3.03;;;;;;;;;;5030782;28;20033;-78
2021/08/02 05:07:17;;;;;;;4.07;2.70;;;;;;;;;;5025071;28;20488;-78
2021/08/02 05:09:42;;;;;;;6.72;2.70;;;;;;;;;;5032303;28;20116;-78
2021/08/02 05:12:10;;;;;;;7.38;3.15;;;;;;;;;;5027615;28;20133;-78
2021/08/02 05:14:35;;;;;;;6.75;3.00;;;;;;;;;;5025150;28;20021;-78
2021/08/02 05:17:00;;;;;;;9.30;2.67;;;;;;;;;;5025434;28;20052;-78
2021/08/02 05:19:26;;;;;;;6.70;2.80;;;;;;;;;;5027351;28;20029;-78
2021/08/02 05:21:51;;;;;;;4.93;2.78;;;;;;;;;;5031392;28;20112;-78
2021/08/02 05:24:17;;;;;;;5.88;3.00;;;;;;;;;;5026806;28;20044;-78
2021/08/02 05:26:43;;;;;;;6.93;2.90;;;;;;;;;;5014004;28;20049;-78
2021/08/02 05:29:08;;;;;;;6.00;2.58;;;;;;;;;;5031155;28;20033;-78
2021/08/02 05:31:33;;;;;;;6.03;2.90;;;;;;;;;;5026100;28;20037;-78
2021/08/02 05:33:59;;;;;;;4.88;2.55;;;;;;;;;;5011327;28;20037;-77
2021/08/02 05:36:24;;;;;;;6.78;2.80;;;;;;;;;;5026869;28;20033;-78
2021/08/02 05:38:49;;;;;;;9.55;3.67;;;;;;;;;;5025842;28;20388;-78
2021/08/02 05:41:15;;;;;;;6.13;3.10;;;;;;;;;;5026286;28;20037;-78
2021/08/02 05:43:40;;;;;;;6.10;2.85;;;;;;;;;;5030845;28;20064;-78
2021/08/02 05:46:06;;;;;;;4.85;2.80;;;;;;;;;;5029412;28;20048;-78
2021/08/02 05:48:32;;;;;;;9.40;2.65;;;;;;;;;;5023860;28;20056;-78
2021/08/02 05:50:57;;;;;;;6.95;3.03;;;;;;;;;;5025241;28;20063;-78
2021/08/02 05:53:22;;;;;;;7.03;2.72;;;;;;;;;;5030720;28;20404;-78
2021/08/02 05:55:48;;;;;;;5.78;2.72;;;;;;;;;;5028291;28;20029;-78
2021/08/02 05:58:13;;;;;;;4.43;2.28;;;;;;;;;;5030473;28;20389;-78
2021/08/02 06:00:39;;;;;;;6.10;3.05;;;;;;;;;;5027524;28;20053;-78
2021/08/02 06:03:04;;;;;;;8.45;2.70;;;;;;;;;;5029078;28;20029;-78
2021/08/02 06:05:30;;;;;;;6.45;2.40;;;;;;;;;;5025824;28;20432;-78
2021/08/02 06:07:55;;;;;;;5.53;2.38;;;;;;;;;;5025270;28;20084;-78
2021/08/02 06:10:20;;;;;;;5.60;2.05;;;;;;;;;;5029155;28;20120;-78
2021/08/02 06:12:46;;;;;;;5.13;2.42;;;;;;;;;;5008192;28;20033;-78
2021/08/02 06:15:12;;;;;;;9.13;2.72;;;;;;;;;;5033717;28;20033;-78
2021/08/02 06:17:37;;;;;;;6.60;2.55;;;;;;;;;;5026608;28;20117;-78
2021/08/02 06:20:04;;;;;;;5.22;2.50;;;;;;;;;;5028798;28;20504;-78
2021/08/02 06:22:30;;;;;;;4.35;2.67;;;;;;;;;;5031086;28;20067;-78
2021/08/02 06:24:55;;;;;;;5.30;2.40;;;;;;;;;;5025364;28;20147;-78
2021/08/02 06:27:22;;;;;;;5.78;2.45;;;;;;;;;;5031101;28;20029;-78
2021/08/02 06:29:47;;;;;;;4.47;2.28;;;;;;;;;;5011377;28;20038;-78
2021/08/02 06:32:13;;;;;;;4.82;2.80;;;;;;;;;;5009156;28;20039;-78
2021/08/02 06:34:38;;;;;;;7.00;2.55;;;;;;;;;;5007063;28;20036;-78
2021/08/02 06:37:03;;;;;;;8.40;2.60;;;;;;;;;;5026515;28;21798;-78
2021/08/02 06:39:29;;;;;;;5.20;2.38;;;;;;;;;;5010307;28;20033;-78
2021/08/02 06:41:54;;;;;;;5.72;2.20;;;;;;;;;;5025242;28;20037;-78
2021/08/02 06:44:20;;;;;;;6.90;2.25;;;;;;;;;;5025615;28;20444;-78
2021/08/02 06:46:46;;;;;;;7.90;1.88;;;;;;;;;;5026337;28;20037;-78
2021/08/02 06:49:12;;;;;;;5.85;1.95;;;;;;;;;;5023167;28;20033;-78
2021/08/02 06:51:37;;;;;;;7.85;2.60;;;;;;;;;;5028602;28;20080;-79
2021/08/02 06:54:03;;;;;;;7.78;2.50;;;;;;;;;;5011240;28;20383;-78
2021/08/02 06:56:28;;;;;;;9.82;2.65;;;;;;;;;;5031438;28;20047;-78
2021/08/02 06:58:53;;;;;;;6.88;2.30;;;;;;;;;;5011291;28;20037;-78
2021/08/02 07:01:19;;;;;;;6.88;2.35;;;;;;;;;;5029612;28;20041;-78
2021/08/02 07:03:44;;;;;;;4.28;1.95;;;;;;;;;;5029256;28;20033;-78
2021/08/02 07:06:10;;;;;;;6.72;1.98;;;;;;;;;;5027476;28;20357;-78
2021/08/02 07:08:39;;;;;;;6.95;2.05;;;;;;;;;;5004978;28;20034;-77
2021/08/02 07:11:06;;;;;;;8.25;2.22;;;;;;;;;;5020226;28;20025;-78
2021/08/02 07:13:32;;;;;;;4.45;2.10;;;;;;;;;;5010491;28;20029;-78
2021/08/02 07:16:00;;;;;;;4.28;1.75;;;;;;;;;;5030950;28;20041;-78
2021/08/02 07:18:26;;;;;;;5.47;2.15;;;;;;;;;;5032784;28;20040;-78
2021/08/02 07:20:51;;;;;;;4.78;1.90;;;;;;;;;;5033989;28;20025;-78
2021/08/02 07:23:17;;;;;;;3.30;1.73;;;;;;;;;;5032913;28;20151;-78
2021/08/02 07:25:42;;;;;;;9.43;2.22;;;;;;;;;;5016386;28;20044;-78
2021/08/02 07:28:08;;;;;;;3.63;1.40;;;;;;;;;;5033104;28;20096;-78
2021/08/02 07:30:33;;;;;;;5.88;1.70;;;;;;;;;;5030614;28;20042;-78
2021/08/02 07:32:59;;;;;;;7.00;2.00;;;;;;;;;;5016894;28;20028;-78
2021/08/02 07:35:24;;;;;;;3.95;1.45;;;;;;;;;;5009591;28;20041;-78
2021/08/02 07:37:50;;;;;;;4.03;1.58;;;;;;;;;;4992889;28;21073;-78
2021/08/02 07:40:15;;;;;;;6.05;1.45;;;;;;;;;;5029399;28;20400;-78
2021/08/02 07:42:41;;;;;;;4.43;1.50;;;;;;;;;;5028651;28;20036;-78
2021/08/02 07:45:07;;;;;;;4.85;1.35;;;;;;;;;;5012856;28;20030;-78
2021/08/02 07:47:32;;;;;;;10.90;1.80;;;;;;;;;;5024665;28;20116;-78
2021/08/02 07:49:59;;;;;;;2.80;1.48;;;;;;;;;;5024942;28;20132;-78
2021/08/02 07:52:24;;;;;;;4.75;1.55;;;;;;;;;;5025862;28;20035;-78
2021/08/02 07:54:50;;;;;;;5.65;1.55;;;;;;;;;;5009968;28;20536;-78
2021/08/02 07:57:15;;;;;;;6.63;1.58;;;;;;;;;;5021977;28;20034;-78
2021/08/02 07:59:40;;;;;;;4.15;1.50;;;;;;;;;;4984097;28;20034;-78
2021/08/02 08:02:06;;;;;;;3.95;1.40;;;;;;;;;;5015848;28;20039;-78
2021/08/02 08:04:33;;;;;;;5.97;1.58;;;;;;;;;;5016338;28;20531;-78
2021/08/02 08:06:58;;;;;;;4.45;1.52;;;;;;;;;;4998182;28;20041;-78
2021/08/02 08:09:24;;;;;;;3.97;1.60;;;;;;;;;;5017589;28;20629;-78
2021/08/02 08:11:50;;;;;;;3.85;1.30;;;;;;;;;;5024106;28;20492;-78
2021/08/02 08:14:15;;;;;;;3.05;1.13;;;;;;;;;;5019939;28;20034;-78
2021/08/02 08:16:41;;;;;;;3.75;1.20;;;;;;;;;;5018588;28;20041;-78
2021/08/02 08:19:06;;;;;;;2.75;1.40;;;;;;;;;;4991111;28;20022;-78
2021/08/02 08:21:35;;;;;;;2.97;1.20;;;;;;;;;;5017793;28;20045;-78
2021/08/02 08:24:03;;;;;;;3.88;1.25;;;;;;;;;;5022605;28;20658;-78
2021/08/02 08:26:29;;;;;;;5.32;1.27;;;;;;;;;;5028384;28;20063;-78
2021/08/02 08:28:54;;;;;;;2.88;1.20;;;;;;;;;;5025256;28;20057;-78
2021/08/02 08:31:19;;;;;;;5.05;1.48;;;;;;;;;;4987580;28;20042;-79
2021/08/02 08:33:46;;;;;;;3.33;1.50;;;;;;;;;;5005805;28;20026;-78
2021/08/02 08:36:14;;;;;;;5.13;1.60;;;;;;;;;;5025151;28;20040;-78
2021/08/02 08:38:40;;;;;;;3.25;1.70;;;;;;;;;;5017443;28;20041;-78
2021/08/02 08:41:05;;;;;;;4.90;1.63;;;;;;;;;;5020330;28;20283;-78
2021/08/02 08:43:31;;;;;;;4.95;1.70;;;;;;;;;;5024897;28;20573;-78
2021/08/02 08:45:56;;;;;;;4.63;1.58;;;;;;;;;;5021270;28;20545;-78
2021/08/02 08:48:22;;;;;;;6.80;1.80;;;;;;;;;;5021101;28;20026;-78
2021/08/02 08:50:47;;;;;;;3.78;1.67;;;;;;;;;;5023301;28;20042;-78
2021/08/02 08:53:16;;;;;;;3.85;1.50;;;;;;;;;;5024254;28;20060;-78
2021/08/02 08:55:44;;;;;;;4.40;1.38;;;;;;;;;;5024685;28;20116;-78
2021/08/02 08:58:11;;;;;;;5.47;1.80;;;;;;;;;;5026058;28;20039;-79
2021/08/02 09:00:36;;;;;;;3.50;1.40;;;;;;;;;;5020024;28;20042;-78
2021/08/02 09:03:12;;;;;;;4.63;1.40;;;;;;;;;;5010261;28;20055;-78
2021/08/02 09:05:38;;;;;;;3.05;1.60;;;;;;;;;;5021986;28;20029;-78
2021/08/02 09:08:05;;;;;;;5.05;1.50;;;;;;;;;;5028821;28;20116;-78
2021/08/02 09:10:31;;;;;;;3.50;1.70;;;;;;;;;;5028217;28;20047;-78
2021/08/02 09:13:03;;;;;;;5.05;1.52;;;;;;;;;;5027024;28;20140;-78
2021/08/02 09:15:40;;;;;;;5.68;1.83;;;;;;;;;;5027645;28;20040;-78
2021/08/02 09:18:09;;;;;;;3.78;1.73;;;;;;;;;;5030580;28;20745;-78
2021/08/02 09:20:36;;;;;;;6.45;1.80;;;;;;;;;;5024745;28;20854;-77
2021/08/02 09:23:13;;;;;;;4.63;1.48;;;;;;;;;;5024434;28;20443;-78
2021/08/02 09:25:51;;;;;;;5.63;1.90;;;;;;;;;;5019466;28;20115;-79
2021/08/02 09:28:19;;;;;;;2.97;1.52;;;;;;;;;;5023323;28;20093;-78
2021/08/02 09:30:59;;;;;;;13.18;2.25;;;;;;;;;;5021050;28;20036;-78
2021/08/02 09:33:25;;;;;;;4.82;2.30;;;;;;;;;;5028113;28;20025;-78
2021/08/02 09:35:51;;;;;;;4.82;1.98;;;;;;;;;;5028096;28;20112;-78
2021/08/02 09:38:20;;;;;;;7.93;1.98;;;;;;;;;;5022805;28;20029;-78
2021/08/02 09:40:51;;;;;;;4.07;1.83;;;;;;;;;;5011593;28;20030;-79
2021/08/02 09:43:27;;;;;;;5.50;1.65;;;;;;;;;;5019561;28;20022;-79
2021/08/02 09:45:55;;;;;;;4.90;1.70;;;;;;;;;;5017812;28;20029;-79
2021/08/02 09:48:33;;;;;;;6.70;1.60;;;;;;;;;;5014345;28;20041;-78
2021/08/02 09:51:07;;;;;;;5.10;1.63;;;;;;;;;;5025508;28;20025;-78
2021/08/02 09:53:37;;;;;;;4.55;1.50;;;;;;;;;;5028615;28;20049;-78
2021/08/02 09:56:02;;;;;;;4.68;1.55;;;;;;;;;;5023694;28;20034;-78
2021/08/02 09:58:28;;;;;;;2.40;1.27;;;;;;;;;;5008298;28;20044;-79
2021/08/02 10:00:54;;;;;;;3.58;1.52;;;;;;;;;;5026131;28;20040;-78
2021/08/02 10:03:20;;;;;;;4.60;1.52;;;;;;;;;;5032019;28;20476;-78
2021/08/02 10:05:49;;;;;;;5.22;1.52;;;;;;;;;;5004440;28;20044;-78
2021/08/02 10:08:17;;;;;;;4.43;1.73;;;;;;;;;;5005563;28;20033;-78
2021/08/02 10:10:42;;;;;;;2.95;1.50;;;;;;;;;;5027825;28;20059;-78
2021/08/02 10:13:08;;;;;;;3.13;1.30;;;;;;;;;;5021377;28;20038;-78
2021/08/02 10:15:33;;;;;;;3.13;1.42;;;;;;;;;;5021502;28;20048;-78
2021/08/02 10:18:05;;;;;;;4.93;1.63;;;;;;;;;;5025155;28;20477;-78
2021/08/02 10:20:34;;;;;;;4.35;1.30;;;;;;;;;;5025145;28;20109;-78
2021/08/02 10:23:02;;;;;;;3.67;1.35;;;;;;;;;;5028022;28;20037;-79
2021/08/02 10:25:40;;;;;;;4.20;1.67;;;;;;;;;;5023816;28;20642;-78
2021/08/02 10:28:12;;;;;;;4.10;1.40;;;;;;;;;;5018290;28;20435;-78
2021/08/02 10:30:38;;;;;;;5.45;1.45;;;;;;;;;;5024960;28;20033;-78
2021/08/02 10:33:04;;;;;;;3.85;1.52;;;;;;;;;;5024057;28;20053;-78
2021/08/02 10:35:38;;;;;;;1.98;1.35;;;;;;;;;;5017535;28;20069;-79
2021/08/02 10:38:24;;;;;;;3.55;1.30;;;;;;;;;;5021131;28;20045;-78
2021/08/02 10:40:56;;;;;;;4.28;1.38;;;;;;;;;;5006460;28;20052;-78
2021/08/02 10:43:40;;;;;;;3.67;1.43;;;;;;;;;;5019819;28;20087;-78
2021/08/02 10:46:21;;;;;;;6.57;1.60;;;;;;;;;;5027105;28;20067;-78
2021/08/02 10:48:48;;;;;;;5.93;2.42;;;;;;;;;;5020291;28;20025;-78
2021/08/02 10:51:17;;;;;;;4.47;1.55;;;;;;;;;;5016142;28;20049;-78
2021/08/02 10:53:43;;;;;;;5.25;1.55;;;;;;;;;;5012021;28;20367;-78
2021/08/02 10:56:09;;;;;;;5.68;1.70;;;;;;;;;;5027057;28;20033;-78
2021/08/02 10:58:38;;;;;;;4.65;1.83;;;;;;;;;;5019186;28;20048;-78
2021/08/02 11:01:14;;;;;;;4.57;2.25;;;;;;;;;;5022239;28;20029;-78
2021/08/02 11:03:41;;;;;;;3.90;1.40;;;;;;;;;;5024382;28;20033;-78
2021/08/02 11:06:11;;;;;;;3.95;1.40;;;;;;;;;;5023943;28;20469;-78
2021/08/02 11:08:53;;;;;;;5.68;1.35;;;;;;;;;;5023347;28;20029;-78
2021/08/02 11:11:25;;;;;;;5.10;1.73;;;;;;;;;;5016809;28;20033;-77
2021/08/02 11:14:17;;;;;;;4.00;1.52;;;;;;;;;;5023425;28;20419;-78
2021/08/02 11:16:50;;;;;;;4.53;1.63;;;;;;;;;;5023400;28;20064;-78
2021/08/02 11:19:16;;;;;;;6.80;1.50;;;;;;;;;;5021739;28;20021;-78
2021/08/02 11:21:42;;;;;;;4.10;1.52;;;;;;;;;;5026423;28;20029;-78
2021/08/02 11:24:09;;;;;;;4.13;1.63;;;;;;;;;;5027460;28;20837;-78
2021/08/02 11:26:48;;;;;;;4.97;1.50;;;;;;;;;;5023515;28;20119;-78
2021/08/02 11:29:18;;;;;;;5.45;1.55;;;;;;;;;;5018191;28;20042;-78
2021/08/02 11:31:59;;;;;;;4.50;1.70;;;;;;;;;;5020792;28;20044;-78
2021/08/02 11:34:26;;;;;;;4.65;1.70;;;;;;;;;;5023255;28;20040;-78
2021/08/02 11:37:15;;;;;;;4.90;1.55;;;;;;;;;;5026829;28;20037;-78
2021/08/02 11:39:43;;;;;;;4.60;1.38;;;;;;;;;;5002609;28;20041;-78
2021/08/02 11:42:11;;;;;;;4.32;1.60;;;;;;;;;;5022993;28;20795;-79
2021/08/02 11:44:39;;;;;;;4.70;1.50;;;;;;;;;;5021722;28;20049;-78
2021/08/02 11:47:09;;;;;;;5.40;1.58;;;;;;;;;;5023421;28;20588;-78
2021/08/02 11:49:38;;;;;;;3.85;1.50;;;;;;;;;;5026955;28;20516;-78
2021/08/02 11:52:05;;;;;;;3.90;1.55;;;;;;;;;;5024155;28;20029;-78
2021/08/02 11:54:31;;;;;;;5.10;1.52;;;;;;;;;;5019317;28;20517;-79
2021/08/02 11:56:56;;;;;;;3.60;1.50;;;;;;;;;;5022872;28;20037;-78
2021/08/02 11:59:23;;;;;;;3.92;1.50;;;;;;;;;;5020494;28;20116;-78
2021/08/02 12:01:49;;;;;;;2.70;1.42;;;;;;;;;;5025284;28;20033;-78
2021/08/02 12:04:16;;;;;;;5.07;1.67;;;;;;;;;;5025098;28;20085;-78
2021/08/02 12:06:55;;;;;;;4.47;1.90;;;;;;;;;;5023049;28;21447;-78
2021/08/02 12:09:33;;;;;;;3.58;1.80;;;;;;;;;;5021104;28;20060;-79
2021/08/02 12:12:01;;;;;;;6.60;1.77;;;;;;;;;;5017041;28;20121;-79
2021/08/02 12:14:28;;;;;;;4.88;1.92;;;;;;;;;;5025229;28;20032;-78
2021/08/02 12:17:07;;;;;;;9.38;2.30;;;;;;;;;;5023056;28;20144;-78
2021/08/02 12:19:47;;;;;;;3.95;1.60;;;;;;;;;;5020095;28;20550;-78
2021/08/02 12:22:14;;;;;;;5.57;2.22;;;;;;;;;;5018891;28;20036;-78
2021/08/02 12:24:57;;;;;;;8.32;1.80;;;;;;;;;;5021205;28;20034;-78
2021/08/02 12:27:24;;;;;;;2.95;1.42;;;;;;;;;;5022297;28;20056;-78
2021/08/02 12:30:11;;;;;;;4.47;1.55;;;;;;;;;;5021967;28;20030;-78
2021/08/02 12:32:41;;;;;;;6.07;1.80;;;;;;;;;;5027670;28;20029;-78
2021/08/02 12:35:15;;;;;;;4.45;1.80;;;;;;;;;;5025840;28;20377;-78
2021/08/02 12:37:41;;;;;;;4.47;1.88;;;;;;;;;;5021919;28;20030;-78
2021/08/02 12:40:10;;;;;;;4.45;1.70;;;;;;;;;;5021439;28;20030;-78
2021/08/02 12:42:44;;;;;;;3.65;2.10;;;;;;;;;;5019008;28;20030;-78
2021/08/02 12:45:11;;;;;;;4.93;2.28;;;;;;;;;;5025096;28;20057;-78
2021/08/02 12:47:36;;;;;;;4.55;2.13;;;;;;;;;;5029024;28;20605;-78
2021/08/02 12:50:03;;;;;;;5.97;1.80;;;;;;;;;;5029765;28;20155;-78
2021/08/02 12:52:30;;;;;;;3.20;1.33;;;;;;;;;;5025517;28;20089;-78
2021/08/02 12:54:57;;;;;;;3.67;1.70;;;;;;;;;;5032255;28;20044;-78
2021/08/02 12:57:26;;;;;;;5.07;1.77;;;;;;;;;;5028345;28;20090;-78
2021/08/02 12:59:58;;;;;;;3.05;1.50;;;;;;;;;;5026263;28;20112;-78
2021/08/02 13:02:32;;;;;;;5.47;1.92;;;;;;;;;;5027596;28;20064;-78
2021/08/02 13:04:59;;;;;;;5.00;2.20;;;;;;;;;;5028331;28;20033;-78
2021/08/02 13:07:26;;;;;;;6.85;2.90;;;;;;;;;;5027887;28;20064;-78
2021/08/02 13:09:52;;;;;;;5.03;2.58;;;;;;;;;;5024530;28;20045;-78
2021/08/02 13:12:19;;;;;;;4.00;2.25;;;;;;;;;;5023361;28;20812;-78
2021/08/02 13:14:45;;;;;;;6.05;2.40;;;;;;;;;;5027452;28;20035;-78
2021/08/02 13:17:11;;;;;;;6.57;2.58;;;;;;;;;;5025112;28;20033;-78
2021/08/02 13:19:38;;;;;;;6.13;2.78;;;;;;;;;;5026221;28;20030;-78
2021/08/02 13:22:05;;;;;;;6.70;2.40;;;;;;;;;;5024987;28;20503;-78
2021/08/02 13:27:14;;;;;;;5.03;2.10;;;;;;;;;;5024922;28;20052;-78
2021/08/02 13:29:40;;;;;;;3.28;1.77;;;;;;;;;;5029127;28;20421;-78
2021/08/02 13:32:07;;;;;;;5.95;1.85;;;;;;;;;;5010553;28;20721;-78
2021/08/02 13:34:34;;;;;;;4.45;1.30;;;;;;;;;;5028666;28;20131;-78
2021/08/02 13:37:00;;;;;;;2.38;1.40;;;;;;;;;;5024404;28;20052;-78
2021/08/02 13:39:27;;;;;;;4.70;1.50;;;;;;;;;;5025433;28;20122;-78
2021/08/02 13:41:52;;;;;;;3.67;1.60;;;;;;;;;;5022780;28;20033;-77
2021/08/02 13:44:18;;;;;;;3.33;1.50;;;;;;;;;;5007135;28;20346;-78
2021/08/02 13:46:46;;;;;;;3.85;1.60;;;;;;;;;;5022699;28;20041;-78
2021/08/02 13:49:12;;;;;;;4.03;1.40;;;;;;;;;;5024135;28;20383;-78
2021/08/02 13:51:37;;;;;;;4.05;1.50;;;;;;;;;;5030734;28;20401;-78
2021/08/02 13:54:03;;;;;;;5.78;1.70;;;;;;;;;;5023680;28;20073;-78
2021/08/02 13:56:28;;;;;;;5.20;1.60;;;;;;;;;;5027922;28;20122;-78
2021/08/02 13:58:53;;;;;;;2.70;1.40;;;;;;;;;;5019560;28;20029;-77
2021/08/02 14:01:19;;;;;;;3.97;1.42;;;;;;;;;;5023145;28;20040;-78
2021/08/02 14:03:45;;;;;;;3.33;1.40;;;;;;;;;;5020618;28;20469;-78
2021/08/02 14:06:11;;;;;;;2.90;1.45;;;;;;;;;;5022703;28;20033;-78
2021/08/02 14:08:36;;;;;;;4.68;1.58;;;;;;;;;;5023952;28;20041;-78
2021/08/02 14:11:20;;;;;;;3.53;1.40;;;;;;;;;;5023674;28;20091;-78
2021/08/02 14:13:51;;;;;;;5.32;1.52;;;;;;;;;;5021366;28;20034;-78
2021/08/02 14:16:19;;;;;;;4.32;1.88;;;;;;;;;;5027921;28;20055;-78
2021/08/02 14:19:13;;;;;;;3.65;1.30;;;;;;;;;;5024625;28;20044;-78
2021/08/02 14:21:40;;;;;;;4.68;1.50;;;;;;;;;;5024638;28;20037;-78
2021/08/02 14:24:07;;;;;;;3.38;1.40;;;;;;;;;;5017988;28;20037;-78
2021/08/02 14:26:34;;;;;;;5.00;1.45;;;;;;;;;;5029598;28;20040;-78
2021/08/02 14:28:59;;;;;;;3.25;1.30;;;;;;;;;;5015833;28;20059;-78
2021/08/02 14:31:25;;;;;;;5.45;1.40;;;;;;;;;;5023549;28;20041;-78
2021/08/02 14:33:53;;;;;;;2.95;1.17;;;;;;;;;;5026107;28;20032;-79
2021/08/02 14:36:20;;;;;;;4.93;1.30;;;;;;;;;;5030640;28;20045;-78
2021/08/02 14:38:53;;;;;;;7.93;1.33;;;;;;;;;;5021474;28;20066;-78
2021/08/02 14:41:43;;;;;;;3.40;1.20;;;;;;;;;;5026453;28;20136;-78
2021/08/02 14:44:09;;;;;;;2.92;1.20;;;;;;;;;;5019479;28;20025;-78
2021/08/02 14:46:36;;;;;;;1.85;0.90;;;;;;;;;;5032669;28;20060;-78
2021/08/02 14:49:03;;;;;;;3.25;0.98;;;;;;;;;;5028560;28;20038;-78
2021/08/02 14:51:33;;;;;;;3.47;0.98;;;;;;;;;;4990434;28;20049;-78
2021/08/02 14:53:59;;;;;;;1.10;0.80;;;;;;;;;;5022199;28;20103;-79